sensor_id;sensor_type;location;lat;lon;timestamp;P1;durP1;ratioP1;P2;durP2;ratioP2
17306;SDS011;8771;48.048;7.682;2024-01-25T00:02:50;3.57;;;1.97;;
17306;SDS011;8771;48.048;7.682;2024-01-25T00:07:53;5.30;;;2.63;;
17306;SDS011;8771;48.048;7.682;2024-01-25T00:12:57;5.23;;;2.60;;
17306;SDS011;8771;48.048;7.682;2024-01-25T00:18:00;5.27;;;2.20;;
17306;SDS011;8771;48.048;7.682;2024-01-25T00:23:03;5.57;;;2.67;;
17306;SDS011;8771;48.048;7.682;2024-01-25T00:28:08;4.70;;;2.53;;
17306;SDS011;8771;48.048;7.682;2024-01-25T00:33:11;4.67;;;2.20;;
17306;SDS011;8771;48.048;7.682;2024-01-25T00:38:14;2.47;;;2.20;;
17306;SDS011;8771;48.048;7.682;2024-01-25T00:43:19;3.40;;;1.87;;
17306;SDS011;8771;48.048;7.682;2024-01-25T00:48:22;3.03;;;2.00;;
17306;SDS011;8771;48.048;7.682;2024-01-25T00:53:25;4.43;;;1.93;;
17306;SDS011;8771;48.048;7.682;2024-01-25T00:58:30;4.93;;;1.97;;
17306;SDS011;8771;48.048;7.682;2024-01-25T01:03:34;4.37;;;1.70;;
17306;SDS011;8771;48.048;7.682;2024-01-25T01:08:37;4.10;;;2.10;;
17306;SDS011;8771;48.048;7.682;2024-01-25T01:13:42;3.73;;;1.80;;
17306;SDS011;8771;48.048;7.682;2024-01-25T01:18:45;3.90;;;1.70;;
17306;SDS011;8771;48.048;7.682;2024-01-25T01:23:47;2.53;;;1.87;;
17306;SDS011;8771;48.048;7.682;2024-01-25T01:28:52;6.47;;;2.17;;
17306;SDS011;8771;48.048;7.682;2024-01-25T01:33:55;6.50;;;2.87;;
17306;SDS011;8771;48.048;7.682;2024-01-25T01:38:59;5.40;;;1.97;;
17306;SDS011;8771;48.048;7.682;2024-01-25T01:44:03;3.93;;;2.23;;
17306;SDS011;8771;48.048;7.682;2024-01-25T01:49:07;3.67;;;2.00;;
17306;SDS011;8771;48.048;7.682;2024-01-25T01:54:10;4.03;;;2.03;;
17306;SDS011;8771;48.048;7.682;2024-01-25T01:59:14;4.47;;;2.37;;
17306;SDS011;8771;48.048;7.682;2024-01-25T02:04:18;6.27;;;4.10;;
17306;SDS011;8771;48.048;7.682;2024-01-25T02:09:21;10.53;;;6.87;;
17306;SDS011;8771;48.048;7.682;2024-01-25T02:14:24;6.07;;;2.50;;
17306;SDS011;8771;48.048;7.682;2024-01-25T02:19:27;4.40;;;2.40;;
17306;SDS011;8771;48.048;7.682;2024-01-25T02:24:31;5.77;;;3.43;;
17306;SDS011;8771;48.048;7.682;2024-01-25T02:29:34;3.57;;;2.37;;
17306;SDS011;8771;48.048;7.682;2024-01-25T02:34:38;2.90;;;2.10;;
17306;SDS011;8771;48.048;7.682;2024-01-25T02:39:42;4.87;;;2.20;;
17306;SDS011;8771;48.048;7.682;2024-01-25T02:44:45;5.13;;;2.23;;
17306;SDS011;8771;48.048;7.682;2024-01-25T02:49:48;3.70;;;1.90;;
17306;SDS011;8771;48.048;7.682;2024-01-25T02:54:52;9.17;;;2.80;;
17306;SDS011;8771;48.048;7.682;2024-01-25T02:59:55;5.10;;;2.60;;
17306;SDS011;8771;48.048;7.682;2024-01-25T03:04:58;4.83;;;1.87;;
17306;SDS011;8771;48.048;7.682;2024-01-25T03:10:02;6.23;;;1.87;;
17306;SDS011;8771;48.048;7.682;2024-01-25T03:15:06;4.73;;;2.00;;
17306;SDS011;8771;48.048;7.682;2024-01-25T03:20:10;5.07;;;1.93;;
17306;SDS011;8771;48.048;7.682;2024-01-25T03:25:14;3.57;;;2.20;;
17306;SDS011;8771;48.048;7.682;2024-01-25T03:30:17;4.30;;;2.10;;
17306;SDS011;8771;48.048;7.682;2024-01-25T03:35:20;5.00;;;2.13;;
17306;SDS011;8771;48.048;7.682;2024-01-25T03:40:26;4.50;;;2.27;;
17306;SDS011;8771;48.048;7.682;2024-01-25T03:45:29;3.20;;;2.00;;
17306;SDS011;8771;48.048;7.682;2024-01-25T03:50:33;3.93;;;2.10;;
17306;SDS011;8771;48.048;7.682;2024-01-25T03:55:38;2.57;;;2.10;;
17306;SDS011;8771;48.048;7.682;2024-01-25T04:00:40;5.00;;;2.13;;
17306;SDS011;8771;48.048;7.682;2024-01-25T04:05:43;4.63;;;2.13;;
17306;SDS011;8771;48.048;7.682;2024-01-25T04:10:47;5.63;;;2.03;;
17306;SDS011;8771;48.048;7.682;2024-01-25T04:15:50;4.67;;;2.17;;
17306;SDS011;8771;48.048;7.682;2024-01-25T04:20:53;4.50;;;2.27;;
17306;SDS011;8771;48.048;7.682;2024-01-25T04:25:57;4.27;;;1.70;;
17306;SDS011;8771;48.048;7.682;2024-01-25T04:30:59;6.67;;;2.30;;
17306;SDS011;8771;48.048;7.682;2024-01-25T04:36:03;5.40;;;1.40;;
17306;SDS011;8771;48.048;7.682;2024-01-25T04:41:07;0.83;;;0.60;;
17306;SDS011;8771;48.048;7.682;2024-01-25T04:46:09;0.77;;;0.60;;
17306;SDS011;8771;48.048;7.682;2024-01-25T04:51:14;1.40;;;0.60;;
17306;SDS011;8771;48.048;7.682;2024-01-25T04:56:19;3.33;;;0.77;;
17306;SDS011;8771;48.048;7.682;2024-01-25T05:01:22;1.53;;;0.60;;
17306;SDS011;8771;48.048;7.682;2024-01-25T05:06:25;1.83;;;0.50;;
17306;SDS011;8771;48.048;7.682;2024-01-25T05:11:30;2.17;;;0.60;;
17306;SDS011;8771;48.048;7.682;2024-01-25T05:16:33;1.20;;;0.70;;
17306;SDS011;8771;48.048;7.682;2024-01-25T05:21:36;1.70;;;0.50;;
17306;SDS011;8771;48.048;7.682;2024-01-25T05:26:41;1.00;;;0.43;;
17306;SDS011;8771;48.048;7.682;2024-01-25T05:31:44;3.60;;;0.50;;
17306;SDS011;8771;48.048;7.682;2024-01-25T05:36:46;0.30;;;0.30;;
17306;SDS011;8771;48.048;7.682;2024-01-25T05:41:49;1.20;;;0.40;;
17306;SDS011;8771;48.048;7.682;2024-01-25T05:46:52;1.70;;;0.40;;
17306;SDS011;8771;48.048;7.682;2024-01-25T05:51:55;1.60;;;0.70;;
17306;SDS011;8771;48.048;7.682;2024-01-25T05:57:00;3.07;;;0.80;;
17306;SDS011;8771;48.048;7.682;2024-01-25T06:02:03;0.83;;;0.63;;
17306;SDS011;8771;48.048;7.682;2024-01-25T06:07:06;1.67;;;0.60;;
17306;SDS011;8771;48.048;7.682;2024-01-25T06:12:10;1.70;;;0.83;;
17306;SDS011;8771;48.048;7.682;2024-01-25T06:17:13;1.93;;;0.93;;
17306;SDS011;8771;48.048;7.682;2024-01-25T06:22:16;2.47;;;0.83;;
17306;SDS011;8771;48.048;7.682;2024-01-25T06:27:21;1.63;;;1.00;;
17306;SDS011;8771;48.048;7.682;2024-01-25T06:32:24;2.90;;;0.90;;
17306;SDS011;8771;48.048;7.682;2024-01-25T06:37:26;3.67;;;0.90;;
17306;SDS011;8771;48.048;7.682;2024-01-25T06:42:29;2.20;;;0.90;;
17306;SDS011;8771;48.048;7.682;2024-01-25T06:47:32;3.80;;;1.23;;
17306;SDS011;8771;48.048;7.682;2024-01-25T06:52:35;3.70;;;1.23;;
17306;SDS011;8771;48.048;7.682;2024-01-25T06:57:39;2.30;;;1.00;;
17306;SDS011;8771;48.048;7.682;2024-01-25T07:02:42;2.43;;;1.10;;
17306;SDS011;8771;48.048;7.682;2024-01-25T07:07:45;3.60;;;1.77;;
17306;SDS011;8771;48.048;7.682;2024-01-25T07:12:50;4.50;;;1.60;;
17306;SDS011;8771;48.048;7.682;2024-01-25T07:17:52;3.23;;;1.50;;
17306;SDS011;8771;48.048;7.682;2024-01-25T07:22:54;2.53;;;1.50;;
17306;SDS011;8771;48.048;7.682;2024-01-25T07:27:59;4.47;;;1.73;;
17306;SDS011;8771;48.048;7.682;2024-01-25T07:33:01;2.97;;;1.60;;
17306;SDS011;8771;48.048;7.682;2024-01-25T07:38:03;2.63;;;1.60;;
17306;SDS011;8771;48.048;7.682;2024-01-25T07:43:07;3.83;;;1.83;;
17306;SDS011;8771;48.048;7.682;2024-01-25T07:48:09;4.20;;;1.97;;
17306;SDS011;8771;48.048;7.682;2024-01-25T07:53:11;4.60;;;1.90;;
17306;SDS011;8771;48.048;7.682;2024-01-25T07:58:16;6.20;;;1.90;;
17306;SDS011;8771;48.048;7.682;2024-01-25T08:03:18;5.37;;;2.30;;
17306;SDS011;8771;48.048;7.682;2024-01-25T08:08:21;3.10;;;1.80;;
17306;SDS011;8771;48.048;7.682;2024-01-25T08:13:26;5.03;;;1.93;;
17306;SDS011;8771;48.048;7.682;2024-01-25T08:18:31;3.03;;;1.77;;
17306;SDS011;8771;48.048;7.682;2024-01-25T08:23:35;2.57;;;1.40;;
17306;SDS011;8771;48.048;7.682;2024-01-25T08:28:39;3.67;;;2.10;;
17306;SDS011;8771;48.048;7.682;2024-01-25T08:33:44;3.67;;;2.00;;
17306;SDS011;8771;48.048;7.682;2024-01-25T08:38:48;6.03;;;3.20;;
17306;SDS011;8771;48.048;7.682;2024-01-25T08:43:52;4.80;;;2.20;;
17306;SDS011;8771;48.048;7.682;2024-01-25T08:48:55;2.43;;;1.33;;
17306;SDS011;8771;48.048;7.682;2024-01-25T08:53:58;2.17;;;1.10;;
17306;SDS011;8771;48.048;7.682;2024-01-25T08:59:02;5.37;;;0.90;;
17306;SDS011;8771;48.048;7.682;2024-01-25T09:04:05;3.37;;;1.33;;
17306;SDS011;8771;48.048;7.682;2024-01-25T09:09:09;2.83;;;1.30;;
17306;SDS011;8771;48.048;7.682;2024-01-25T09:14:14;3.83;;;1.10;;
17306;SDS011;8771;48.048;7.682;2024-01-25T09:19:17;2.20;;;1.40;;
17306;SDS011;8771;48.048;7.682;2024-01-25T09:24:20;3.67;;;1.60;;
17306;SDS011;8771;48.048;7.682;2024-01-25T09:29:25;3.53;;;1.30;;
17306;SDS011;8771;48.048;7.682;2024-01-25T09:34:27;1.67;;;0.90;;
17306;SDS011;8771;48.048;7.682;2024-01-25T09:39:30;3.37;;;1.00;;
17306;SDS011;8771;48.048;7.682;2024-01-25T09:44:35;2.03;;;0.93;;
17306;SDS011;8771;48.048;7.682;2024-01-25T09:49:39;2.97;;;1.33;;
17306;SDS011;8771;48.048;7.682;2024-01-25T09:54:43;3.33;;;1.30;;
17306;SDS011;8771;48.048;7.682;2024-01-25T09:59:48;1.53;;;1.17;;
17306;SDS011;8771;48.048;7.682;2024-01-25T10:04:53;4.40;;;1.47;;
17306;SDS011;8771;48.048;7.682;2024-01-25T10:09:56;1.83;;;1.50;;
17306;SDS011;8771;48.048;7.682;2024-01-25T10:15:01;2.43;;;1.70;;
17306;SDS011;8771;48.048;7.682;2024-01-25T10:20:06;1.63;;;1.53;;
17306;SDS011;8771;48.048;7.682;2024-01-25T10:25:12;2.63;;;1.47;;
17306;SDS011;8771;48.048;7.682;2024-01-25T10:30:17;1.83;;;1.07;;
17306;SDS011;8771;48.048;7.682;2024-01-25T10:35:21;1.97;;;1.20;;
17306;SDS011;8771;48.048;7.682;2024-01-25T10:40:23;3.47;;;1.50;;
17306;SDS011;8771;48.048;7.682;2024-01-25T10:45:28;3.23;;;1.60;;
17306;SDS011;8771;48.048;7.682;2024-01-25T10:50:31;2.93;;;1.40;;
17306;SDS011;8771;48.048;7.682;2024-01-25T10:55:34;2.10;;;1.43;;
17306;SDS011;8771;48.048;7.682;2024-01-25T11:00:38;3.83;;;1.70;;
17306;SDS011;8771;48.048;7.682;2024-01-25T11:05:40;3.90;;;1.47;;
17306;SDS011;8771;48.048;7.682;2024-01-25T11:10:46;4.53;;;1.30;;
17306;SDS011;8771;48.048;7.682;2024-01-25T11:15:53;2.17;;;1.40;;
17306;SDS011;8771;48.048;7.682;2024-01-25T11:20:59;1.33;;;1.10;;
17306;SDS011;8771;48.048;7.682;2024-01-25T11:26:02;2.07;;;1.00;;
17306;SDS011;8771;48.048;7.682;2024-01-25T11:31:11;1.70;;;1.00;;
17306;SDS011;8771;48.048;7.682;2024-01-25T11:36:14;0.80;;;0.80;;
17306;SDS011;8771;48.048;7.682;2024-01-25T11:41:16;0.73;;;0.73;;
17306;SDS011;8771;48.048;7.682;2024-01-25T11:46:21;1.03;;;0.93;;
17306;SDS011;8771;48.048;7.682;2024-01-25T11:51:24;1.50;;;0.93;;
17306;SDS011;8771;48.048;7.682;2024-01-25T11:56:27;1.97;;;0.93;;
17306;SDS011;8771;48.048;7.682;2024-01-25T12:01:33;0.90;;;0.90;;
17306;SDS011;8771;48.048;7.682;2024-01-25T12:06:36;1.07;;;0.80;;
17306;SDS011;8771;48.048;7.682;2024-01-25T12:11:40;0.90;;;0.90;;
17306;SDS011;8771;48.048;7.682;2024-01-25T12:16:45;1.27;;;0.60;;
17306;SDS011;8771;48.048;7.682;2024-01-25T12:21:48;1.60;;;0.80;;
17306;SDS011;8771;48.048;7.682;2024-01-25T12:26:52;0.60;;;0.50;;
17306;SDS011;8771;48.048;7.682;2024-01-25T12:31:57;0.70;;;0.70;;
17306;SDS011;8771;48.048;7.682;2024-01-25T12:36:59;1.43;;;1.20;;
17306;SDS011;8771;48.048;7.682;2024-01-25T12:42:01;1.37;;;0.90;;
17306;SDS011;8771;48.048;7.682;2024-01-25T12:47:05;0.70;;;0.70;;
17306;SDS011;8771;48.048;7.682;2024-01-25T12:52:08;1.03;;;0.80;;
17306;SDS011;8771;48.048;7.682;2024-01-25T12:57:10;0.70;;;0.70;;
17306;SDS011;8771;48.048;7.682;2024-01-25T13:02:13;0.70;;;0.70;;
17306;SDS011;8771;48.048;7.682;2024-01-25T13:07:15;1.90;;;0.60;;
17306;SDS011;8771;48.048;7.682;2024-01-25T13:12:17;0.83;;;0.80;;
17306;SDS011;8771;48.048;7.682;2024-01-25T13:17:20;1.53;;;0.93;;
17306;SDS011;8771;48.048;7.682;2024-01-25T13:22:24;1.57;;;0.93;;
17306;SDS011;8771;48.048;7.682;2024-01-25T13:27:26;3.53;;;1.20;;
17306;SDS011;8771;48.048;7.682;2024-01-25T13:32:29;1.43;;;1.10;;
17306;SDS011;8771;48.048;7.682;2024-01-25T13:37:31;1.33;;;1.23;;
17306;SDS011;8771;48.048;7.682;2024-01-25T13:42:33;7.67;;;4.43;;
17306;SDS011;8771;48.048;7.682;2024-01-25T13:47:36;2.37;;;1.80;;
17306;SDS011;8771;48.048;7.682;2024-01-25T13:52:41;1.67;;;1.57;;
17306;SDS011;8771;48.048;7.682;2024-01-25T13:57:43;2.30;;;1.93;;
17306;SDS011;8771;48.048;7.682;2024-01-25T14:02:47;2.60;;;2.00;;
17306;SDS011;8771;48.048;7.682;2024-01-25T14:07:50;3.03;;;2.00;;
17306;SDS011;8771;48.048;7.682;2024-01-25T14:12:53;3.17;;;2.00;;
17306;SDS011;8771;48.048;7.682;2024-01-25T14:17:57;2.07;;;1.97;;
17306;SDS011;8771;48.048;7.682;2024-01-25T14:23:00;3.73;;;3.43;;
17306;SDS011;8771;48.048;7.682;2024-01-25T14:28:03;2.73;;;2.53;;
17306;SDS011;8771;48.048;7.682;2024-01-25T14:33:07;4.70;;;3.10;;
17306;SDS011;8771;48.048;7.682;2024-01-25T14:38:10;4.20;;;3.80;;
17306;SDS011;8771;48.048;7.682;2024-01-25T14:43:13;2.10;;;2.00;;
17306;SDS011;8771;48.048;7.682;2024-01-25T14:48:18;4.77;;;2.60;;
17306;SDS011;8771;48.048;7.682;2024-01-25T14:53:21;3.50;;;2.10;;
17306;SDS011;8771;48.048;7.682;2024-01-25T14:58:24;2.23;;;1.90;;
17306;SDS011;8771;48.048;7.682;2024-01-25T15:03:28;4.17;;;3.60;;
17306;SDS011;8771;48.048;7.682;2024-01-25T15:08:31;5.33;;;4.23;;
17306;SDS011;8771;48.048;7.682;2024-01-25T15:13:34;12.17;;;8.07;;
17306;SDS011;8771;48.048;7.682;2024-01-25T15:18:38;11.53;;;7.90;;
17306;SDS011;8771;48.048;7.682;2024-01-25T15:23:40;6.23;;;4.80;;
17306;SDS011;8771;48.048;7.682;2024-01-25T15:28:42;4.40;;;3.53;;
17306;SDS011;8771;48.048;7.682;2024-01-25T15:33:46;4.63;;;3.73;;
17306;SDS011;8771;48.048;7.682;2024-01-25T15:38:48;3.17;;;2.83;;
17306;SDS011;8771;48.048;7.682;2024-01-25T15:43:50;3.10;;;2.83;;
17306;SDS011;8771;48.048;7.682;2024-01-25T15:48:54;5.30;;;2.70;;
17306;SDS011;8771;48.048;7.682;2024-01-25T15:53:56;3.93;;;2.33;;
17306;SDS011;8771;48.048;7.682;2024-01-25T15:58:58;3.63;;;2.80;;
17306;SDS011;8771;48.048;7.682;2024-01-25T16:04:02;2.73;;;2.50;;
17306;SDS011;8771;48.048;7.682;2024-01-25T16:09:05;3.40;;;2.60;;
17306;SDS011;8771;48.048;7.682;2024-01-25T16:14:08;3.27;;;2.70;;
17306;SDS011;8771;48.048;7.682;2024-01-25T16:19:13;3.87;;;3.40;;
17306;SDS011;8771;48.048;7.682;2024-01-25T16:24:16;3.17;;;2.97;;
17306;SDS011;8771;48.048;7.682;2024-01-25T16:29:19;2.60;;;2.40;;
17306;SDS011;8771;48.048;7.682;2024-01-25T16:34:22;3.97;;;2.47;;
17306;SDS011;8771;48.048;7.682;2024-01-25T16:39:24;3.00;;;2.70;;
17306;SDS011;8771;48.048;7.682;2024-01-25T16:44:26;6.10;;;2.43;;
17306;SDS011;8771;48.048;7.682;2024-01-25T16:49:29;2.47;;;2.27;;
17306;SDS011;8771;48.048;7.682;2024-01-25T16:54:31;3.10;;;2.30;;
17306;SDS011;8771;48.048;7.682;2024-01-25T16:59:33;3.67;;;3.33;;
17306;SDS011;8771;48.048;7.682;2024-01-25T17:04:37;6.60;;;5.57;;
17306;SDS011;8771;48.048;7.682;2024-01-25T17:09:39;5.07;;;4.20;;
17306;SDS011;8771;48.048;7.682;2024-01-25T17:14:41;17.87;;;12.00;;
17306;SDS011;8771;48.048;7.682;2024-01-25T17:19:46;4.27;;;3.30;;
17306;SDS011;8771;48.048;7.682;2024-01-25T17:24:49;5.73;;;4.03;;
17306;SDS011;8771;48.048;7.682;2024-01-25T17:29:52;4.97;;;4.10;;
17306;SDS011;8771;48.048;7.682;2024-01-25T17:34:57;5.73;;;4.70;;
17306;SDS011;8771;48.048;7.682;2024-01-25T17:40:00;5.60;;;5.03;;
17306;SDS011;8771;48.048;7.682;2024-01-25T17:45:03;6.10;;;5.50;;
17306;SDS011;8771;48.048;7.682;2024-01-25T17:50:09;7.40;;;6.70;;
17306;SDS011;8771;48.048;7.682;2024-01-25T17:55:12;10.07;;;8.97;;
17306;SDS011;8771;48.048;7.682;2024-01-25T18:00:15;12.50;;;11.30;;
17306;SDS011;8771;48.048;7.682;2024-01-25T18:05:20;14.03;;;12.30;;
17306;SDS011;8771;48.048;7.682;2024-01-25T18:10:23;16.33;;;14.63;;
17306;SDS011;8771;48.048;7.682;2024-01-25T18:15:26;13.90;;;12.50;;
17306;SDS011;8771;48.048;7.682;2024-01-25T18:20:30;11.73;;;10.23;;
17306;SDS011;8771;48.048;7.682;2024-01-25T18:25:33;8.37;;;7.57;;
17306;SDS011;8771;48.048;7.682;2024-01-25T18:30:36;7.37;;;6.50;;
17306;SDS011;8771;48.048;7.682;2024-01-25T18:35:40;9.53;;;7.53;;
17306;SDS011;8771;48.048;7.682;2024-01-25T18:40:43;5.80;;;5.30;;
17306;SDS011;8771;48.048;7.682;2024-01-25T18:45:46;5.70;;;5.17;;
17306;SDS011;8771;48.048;7.682;2024-01-25T18:50:51;8.60;;;5.80;;
17306;SDS011;8771;48.048;7.682;2024-01-25T18:55:54;6.37;;;5.77;;
17306;SDS011;8771;48.048;7.682;2024-01-25T19:00:57;8.43;;;6.33;;
17306;SDS011;8771;48.048;7.682;2024-01-25T19:06:03;8.50;;;7.53;;
17306;SDS011;8771;48.048;7.682;2024-01-25T19:11:06;7.40;;;6.60;;
17306;SDS011;8771;48.048;7.682;2024-01-25T19:16:09;5.77;;;5.00;;
17306;SDS011;8771;48.048;7.682;2024-01-25T19:21:14;6.67;;;5.73;;
17306;SDS011;8771;48.048;7.682;2024-01-25T19:26:17;9.43;;;8.43;;
17306;SDS011;8771;48.048;7.682;2024-01-25T19:31:20;11.07;;;9.60;;
17306;SDS011;8771;48.048;7.682;2024-01-25T19:36:24;15.63;;;12.63;;
17306;SDS011;8771;48.048;7.682;2024-01-25T19:41:27;16.03;;;14.30;;
17306;SDS011;8771;48.048;7.682;2024-01-25T19:46:30;16.83;;;14.97;;
17306;SDS011;8771;48.048;7.682;2024-01-25T19:51:33;15.23;;;13.37;;
17306;SDS011;8771;48.048;7.682;2024-01-25T19:56:36;14.20;;;11.50;;
17306;SDS011;8771;48.048;7.682;2024-01-25T20:01:39;13.20;;;11.00;;
17306;SDS011;8771;48.048;7.682;2024-01-25T20:06:44;11.47;;;9.63;;
17306;SDS011;8771;48.048;7.682;2024-01-25T20:11:47;10.83;;;9.73;;
17306;SDS011;8771;48.048;7.682;2024-01-25T20:16:50;8.93;;;8.13;;
17306;SDS011;8771;48.048;7.682;2024-01-25T20:21:55;8.17;;;7.37;;
17306;SDS011;8771;48.048;7.682;2024-01-25T20:26:58;8.27;;;7.13;;
17306;SDS011;8771;48.048;7.682;2024-01-25T20:32:01;9.37;;;7.03;;
17306;SDS011;8771;48.048;7.682;2024-01-25T20:37:04;7.03;;;6.43;;
17306;SDS011;8771;48.048;7.682;2024-01-25T20:42:06;6.83;;;6.00;;
17306;SDS011;8771;48.048;7.682;2024-01-25T20:47:08;7.83;;;6.53;;
17306;SDS011;8771;48.048;7.682;2024-01-25T20:52:12;9.17;;;7.13;;
17306;SDS011;8771;48.048;7.682;2024-01-25T20:57:14;7.90;;;6.87;;
17306;SDS011;8771;48.048;7.682;2024-01-25T21:02:17;8.97;;;7.20;;
17306;SDS011;8771;48.048;7.682;2024-01-25T21:07:21;10.93;;;8.80;;
17306;SDS011;8771;48.048;7.682;2024-01-25T21:12:24;9.63;;;7.07;;
17306;SDS011;8771;48.048;7.682;2024-01-25T21:17:28;8.87;;;7.07;;
17306;SDS011;8771;48.048;7.682;2024-01-25T21:22:32;8.60;;;6.73;;
17306;SDS011;8771;48.048;7.682;2024-01-25T21:27:36;8.30;;;6.97;;
17306;SDS011;8771;48.048;7.682;2024-01-25T21:32:39;8.30;;;7.00;;
17306;SDS011;8771;48.048;7.682;2024-01-25T21:37:44;7.13;;;6.43;;
17306;SDS011;8771;48.048;7.682;2024-01-25T21:42:46;6.13;;;5.53;;
17306;SDS011;8771;48.048;7.682;2024-01-25T21:47:49;7.33;;;5.63;;
17306;SDS011;8771;48.048;7.682;2024-01-25T21:52:53;6.40;;;5.80;;
17306;SDS011;8771;48.048;7.682;2024-01-25T21:57:56;6.17;;;5.63;;
17306;SDS011;8771;48.048;7.682;2024-01-25T22:02:59;6.70;;;6.10;;
17306;SDS011;8771;48.048;7.682;2024-01-25T22:08:04;6.10;;;5.50;;
17306;SDS011;8771;48.048;7.682;2024-01-25T22:13:07;6.60;;;5.83;;
17306;SDS011;8771;48.048;7.682;2024-01-25T22:18:10;6.17;;;5.33;;
17306;SDS011;8771;48.048;7.682;2024-01-25T22:23:15;5.90;;;5.30;;
17306;SDS011;8771;48.048;7.682;2024-01-25T22:28:18;5.63;;;4.93;;
17306;SDS011;8771;48.048;7.682;2024-01-25T22:33:21;4.40;;;4.00;;
17306;SDS011;8771;48.048;7.682;2024-01-25T22:38:26;3.10;;;2.90;;
17306;SDS011;8771;48.048;7.682;2024-01-25T22:43:29;3.73;;;3.03;;
17306;SDS011;8771;48.048;7.682;2024-01-25T22:48:32;4.53;;;2.90;;
17306;SDS011;8771;48.048;7.682;2024-01-25T22:53:37;2.80;;;2.50;;
17306;SDS011;8771;48.048;7.682;2024-01-25T22:58:40;1.73;;;1.60;;
17306;SDS011;8771;48.048;7.682;2024-01-25T23:03:43;2.97;;;1.80;;
17306;SDS011;8771;48.048;7.682;2024-01-25T23:08:47;1.30;;;1.20;;
17306;SDS011;8771;48.048;7.682;2024-01-25T23:13:50;1.90;;;1.80;;
17306;SDS011;8771;48.048;7.682;2024-01-25T23:18:53;1.40;;;1.30;;
17306;SDS011;8771;48.048;7.682;2024-01-25T23:23:59;2.07;;;1.40;;
17306;SDS011;8771;48.048;7.682;2024-01-25T23:29:02;2.50;;;1.43;;
17306;SDS011;8771;48.048;7.682;2024-01-25T23:34:05;2.23;;;1.70;;
17306;SDS011;8771;48.048;7.682;2024-01-25T23:39:09;5.80;;;2.40;;
17306;SDS011;8771;48.048;7.682;2024-01-25T23:44:11;2.60;;;2.40;;
17306;SDS011;8771;48.048;7.682;2024-01-25T23:49:13;7.93;;;5.60;;
17306;SDS011;8771;48.048;7.682;2024-01-25T23:54:18;7.90;;;5.57;;
17306;SDS011;8771;48.048;7.682;2024-01-25T23:59:20;3.90;;;3.40;;
